createdAt,value
2022-10-18T00:00:20.201Z,0
2022-10-18T00:01:22.898Z,0
2022-10-18T00:02:26.017Z,0
2022-10-18T00:03:29.757Z,0
2022-10-18T00:04:33.522Z,0
2022-10-18T00:05:36.286Z,0
2022-10-18T00:06:41.122Z,0
2022-10-18T00:07:46.743Z,0
2022-10-18T00:08:49.621Z,0
2022-10-18T00:09:52.623Z,0
2022-10-18T00:10:55.677Z,0
2022-10-18T00:11:59.047Z,0
2022-10-18T00:13:02.039Z,0
2022-10-18T00:14:04.478Z,0
2022-10-18T00:15:07.622Z,0
2022-10-18T00:16:10.146Z,0
2022-10-18T00:17:12.859Z,0
2022-10-18T00:18:16.276Z,0
2022-10-18T00:19:19.936Z,0
2022-10-18T00:20:25.709Z,0
2022-10-18T00:21:29.234Z,0
2022-10-18T00:22:33.581Z,0
2022-10-18T00:23:37.368Z,0
2022-10-18T00:24:40.712Z,0
2022-10-18T00:25:43.841Z,0
2022-10-18T00:26:46.631Z,0
2022-10-18T00:27:49.418Z,0
2022-10-18T00:28:52.573Z,0
2022-10-18T00:29:55.823Z,0
2022-10-18T00:30:58.894Z,0
2022-10-18T00:32:01.603Z,0
2022-10-18T00:33:04.747Z,0
2022-10-18T00:34:07.189Z,0
2022-10-18T00:35:10.071Z,0
2022-10-18T00:36:13.526Z,0
2022-10-18T00:37:16.294Z,0
2022-10-18T00:38:19.746Z,0
2022-10-18T00:39:23.507Z,0
2022-10-18T00:40:26.285Z,0
2022-10-18T00:41:29.630Z,0
2022-10-18T00:42:33.097Z,0
2022-10-18T00:43:36.908Z,0
2022-10-18T00:44:39.502Z,0
2022-10-18T00:45:42.678Z,0
2022-10-18T00:46:45.665Z,0
2022-10-18T00:47:48.463Z,0
2022-10-18T00:48:51.545Z,0
2022-10-18T00:49:55.160Z,0
2022-10-18T00:50:58.236Z,0
2022-10-18T00:52:01.584Z,0
2022-10-18T00:53:04.438Z,0
2022-10-18T00:54:07.534Z,0
2022-10-18T00:55:10.947Z,0
2022-10-18T00:56:13.997Z,0
2022-10-18T00:57:17.717Z,0
2022-10-18T00:58:21.049Z,0
2022-10-18T00:59:23.634Z,0
2022-10-18T01:00:26.456Z,0
2022-10-18T01:01:29.683Z,0
2022-10-18T01:02:32.129Z,0
2022-10-18T01:03:35.874Z,0
2022-10-18T01:04:38.940Z,0
2022-10-18T01:05:41.534Z,0
2022-10-18T01:06:44.271Z,0
2022-10-18T01:07:47.290Z,0
2022-10-18T01:08:51.188Z,0
2022-10-18T01:09:54.292Z,0
2022-10-18T01:10:58.067Z,0
2022-10-18T01:12:01.203Z,0
2022-10-18T01:13:04.641Z,0
2022-10-18T01:14:07.813Z,0
2022-10-18T01:15:10.502Z,0
2022-10-18T01:16:13.336Z,0
2022-10-18T01:17:16.469Z,0
2022-10-18T01:18:19.732Z,0
2022-10-18T01:19:22.521Z,0
2022-10-18T01:20:25.211Z,0
2022-10-18T01:21:27.722Z,0
2022-10-18T01:22:31.415Z,0
2022-10-18T01:23:34.486Z,0
2022-10-18T01:24:37.882Z,0
2022-10-18T01:25:41.616Z,0
2022-10-18T01:26:45.106Z,0
2022-10-18T01:27:47.993Z,0
2022-10-18T01:28:51.380Z,0
2022-10-18T01:29:54.782Z,0
2022-10-18T01:30:57.581Z,0
2022-10-18T01:32:01.002Z,0
2022-10-18T01:33:03.894Z,0
2022-10-18T01:34:07.597Z,0
2022-10-18T01:35:11.611Z,0
2022-10-18T01:36:13.766Z,0
2022-10-18T01:37:16.846Z,0
2022-10-18T01:38:19.330Z,0
2022-10-18T01:39:22.671Z,0
2022-10-18T01:40:26.269Z,0
2022-10-18T01:41:29.646Z,0
2022-10-18T01:42:33.507Z,0
2022-10-18T01:43:36.751Z,0
2022-10-18T01:44:39.462Z,0
2022-10-18T01:45:41.501Z,0
2022-10-18T01:46:44.854Z,0
2022-10-18T01:47:48.198Z,0
2022-10-18T01:48:51.336Z,0
2022-10-18T01:49:54.785Z,0
2022-10-18T01:50:58.135Z,0
2022-10-18T01:52:01.575Z,0
2022-10-18T01:53:04.730Z,0
2022-10-18T01:54:08.068Z,0
2022-10-18T01:55:11.692Z,0
2022-10-18T01:56:15.128Z,0
2022-10-18T01:57:18.221Z,0
2022-10-18T01:58:21.966Z,0
2022-10-18T01:59:25.024Z,0
2022-10-18T02:00:27.547Z,0
2022-10-18T02:01:30.412Z,0
2022-10-18T02:02:32.981Z,0
2022-10-18T02:03:37.273Z,0
2022-10-18T02:04:40.329Z,0
2022-10-18T02:05:43.601Z,0
2022-10-18T02:06:46.200Z,0
2022-10-18T02:07:52.003Z,0
2022-10-18T02:09:26.184Z,0
2022-10-18T02:10:29.043Z,0
2022-10-18T02:11:32.088Z,0
2022-10-18T02:12:35.033Z,0
2022-10-18T02:13:37.879Z,0
2022-10-18T02:14:40.730Z,0
2022-10-18T02:15:43.796Z,0
2022-10-18T02:16:47.241Z,0
2022-10-18T02:17:50.604Z,0
2022-10-18T02:18:54.026Z,0
2022-10-18T02:19:56.736Z,0
2022-10-18T02:21:00.376Z,0
2022-10-18T02:22:02.654Z,0
2022-10-18T02:23:05.444Z,0
2022-10-18T02:24:08.813Z,0
2022-10-18T02:25:11.611Z,0
2022-10-18T02:26:14.708Z,0
2022-10-18T02:27:18.174Z,0
2022-10-18T02:28:21.421Z,0
2022-10-18T02:29:25.432Z,0
2022-10-18T02:30:28.494Z,0
2022-10-18T02:31:31.841Z,0
2022-10-18T02:32:34.717Z,0
2022-10-18T02:33:37.154Z,0
2022-10-18T02:34:40.311Z,0
2022-10-18T02:35:43.108Z,0
2022-10-18T02:36:46.257Z,0
2022-10-18T02:37:48.838Z,0
2022-10-18T02:38:51.391Z,0
2022-10-18T02:39:54.193Z,0
2022-10-18T02:40:57.154Z,0
2022-10-18T02:41:59.221Z,0
2022-10-18T02:43:02.644Z,0
2022-10-18T02:44:06.000Z,0
2022-10-18T02:45:09.109Z,0
2022-10-18T02:46:12.433Z,0
2022-10-18T02:47:16.034Z,0
2022-10-18T02:48:18.735Z,0
2022-10-18T02:49:21.823Z,0
2022-10-18T02:50:24.401Z,0
2022-10-18T02:51:28.089Z,0
2022-10-18T02:52:31.544Z,0
2022-10-18T02:53:34.674Z,0
2022-10-18T02:54:37.652Z,0
2022-10-18T02:55:40.147Z,0
2022-10-18T02:56:42.848Z,0
2022-10-18T02:57:45.976Z,0
2022-10-18T02:58:49.377Z,0
2022-10-18T02:59:52.754Z,0
2022-10-18T03:00:56.159Z,0
2022-10-18T03:02:00.180Z,0
2022-10-18T03:03:02.893Z,0
2022-10-18T03:04:05.154Z,0
2022-10-18T03:05:07.383Z,0
2022-10-18T03:06:09.990Z,0
2022-10-18T03:07:12.993Z,0
2022-10-18T03:08:15.511Z,0
2022-10-18T03:09:18.384Z,0
2022-10-18T03:10:21.611Z,0
2022-10-18T03:11:24.607Z,0
2022-10-18T03:12:28.347Z,0
2022-10-18T03:13:31.133Z,0
2022-10-18T03:14:34.572Z,0
2022-10-18T03:15:37.824Z,0
2022-10-18T03:16:41.026Z,0
2022-10-18T03:17:44.356Z,0
2022-10-18T03:18:47.350Z,0
2022-10-18T03:19:50.138Z,0
2022-10-18T03:20:53.209Z,0
2022-10-18T03:21:55.639Z,0
2022-10-18T03:22:58.500Z,0
2022-10-18T03:24:01.099Z,0
2022-10-18T03:25:04.159Z,0
2022-10-18T03:26:07.018Z,0
2022-10-18T03:27:10.006Z,0
2022-10-18T03:28:12.433Z,0
2022-10-18T03:29:15.137Z,0
2022-10-18T03:30:18.264Z,0
2022-10-18T03:31:21.742Z,0
2022-10-18T03:32:26.224Z,0
2022-10-18T03:33:29.189Z,0
2022-10-18T03:34:31.901Z,0
2022-10-18T03:35:34.770Z,0
2022-10-18T03:36:38.197Z,0
2022-10-18T03:37:41.210Z,0
2022-10-18T03:38:44.298Z,0
2022-10-18T03:39:47.159Z,0
2022-10-18T03:40:50.031Z,0
2022-10-18T03:41:53.484Z,0
2022-10-18T03:42:55.710Z,0
2022-10-18T03:43:57.661Z,0
2022-10-18T03:45:00.729Z,0
2022-10-18T03:46:03.977Z,0
2022-10-18T03:47:07.163Z,0
2022-10-18T03:48:10.370Z,0
2022-10-18T03:49:13.705Z,0
2022-10-18T03:50:16.957Z,0
2022-10-18T03:51:20.116Z,0
2022-10-18T03:52:22.919Z,0
2022-10-18T03:53:25.699Z,0
2022-10-18T03:54:28.963Z,0
2022-10-18T03:55:31.480Z,0
2022-10-18T03:56:34.184Z,0
2022-10-18T03:57:36.989Z,0
2022-10-18T03:58:40.056Z,0
2022-10-18T03:59:43.257Z,0
2022-10-18T04:00:46.392Z,0
2022-10-18T04:01:49.244Z,0
2022-10-18T04:02:53.510Z,0
2022-10-18T04:03:59.578Z,0
2022-10-18T04:05:02.454Z,0
2022-10-18T04:06:05.439Z,0
2022-10-18T04:07:09.165Z,0
2022-10-18T04:08:12.349Z,0
2022-10-18T04:09:15.979Z,0
2022-10-18T04:10:19.059Z,0
2022-10-18T04:11:21.859Z,0
2022-10-18T04:12:24.569Z,0
2022-10-18T04:13:27.628Z,0
2022-10-18T04:14:30.149Z,0
2022-10-18T04:15:33.108Z,0
2022-10-18T04:17:40.354Z,0
2022-10-18T04:18:44.080Z,0
2022-10-18T04:19:47.280Z,0
2022-10-18T04:20:51.261Z,0
2022-10-18T04:21:54.271Z,0
2022-10-18T04:22:57.339Z,0
2022-10-18T04:24:00.993Z,0
2022-10-18T04:25:04.096Z,0
2022-10-18T04:26:07.430Z,0
2022-10-18T04:27:10.023Z,0
2022-10-18T04:28:12.541Z,0
2022-10-18T04:29:15.702Z,0
2022-10-18T04:30:18.421Z,0
2022-10-18T04:31:21.694Z,0
2022-10-18T04:32:24.755Z,0
2022-10-18T04:33:27.753Z,0
2022-10-18T04:34:30.732Z,0
2022-10-18T04:35:35.332Z,0
2022-10-18T04:36:38.781Z,0
2022-10-18T04:37:42.513Z,0
2022-10-18T04:38:45.664Z,0
2022-10-18T04:39:51.127Z,0
2022-10-18T04:40:56.681Z,0
2022-10-18T04:41:59.545Z,0
2022-10-18T04:43:02.684Z,0
2022-10-18T04:44:05.850Z,0
2022-10-18T04:45:09.188Z,0
2022-10-18T04:46:12.052Z,0
2022-10-18T04:47:14.770Z,0
2022-10-18T04:48:17.274Z,0
2022-10-18T04:49:20.706Z,0
2022-10-18T04:50:24.174Z,0
2022-10-18T04:51:28.298Z,0
2022-10-18T04:52:31.463Z,0
2022-10-18T04:53:34.170Z,0
2022-10-18T04:54:36.598Z,0
2022-10-18T04:55:39.666Z,0
2022-10-18T04:56:42.250Z,0
2022-10-18T04:57:45.591Z,0
2022-10-18T04:58:48.186Z,0
2022-10-18T04:59:51.321Z,0
2022-10-18T05:00:54.391Z,0
2022-10-18T05:01:57.449Z,0
2022-10-18T05:03:01.431Z,0
2022-10-18T05:04:04.581Z,0
2022-10-18T05:05:09.161Z,0
2022-10-18T05:06:17.126Z,0
2022-10-18T05:07:20.999Z,0
2022-10-18T05:08:24.065Z,0
2022-10-18T05:09:27.201Z,0
2022-10-18T05:10:29.905Z,0
2022-10-18T05:11:32.784Z,0
2022-10-18T05:12:35.703Z,0
2022-10-18T05:13:38.512Z,0
2022-10-18T05:14:41.295Z,0
2022-10-18T05:15:44.152Z,0
2022-10-18T05:16:46.652Z,4
2022-10-18T05:17:49.524Z,4
2022-10-18T05:18:52.954Z,4
2022-10-18T05:19:56.361Z,4
2022-10-18T05:20:59.680Z,8
2022-10-18T05:22:02.472Z,4
2022-10-18T05:23:06.581Z,8
2022-10-18T05:24:10.254Z,12
2022-10-18T05:25:13.307Z,12
2022-10-18T05:26:16.096Z,16
2022-10-18T05:27:19.438Z,20
2022-10-18T05:29:56.515Z,28
2022-10-18T05:31:08.284Z,36
2022-10-18T05:32:11.707Z,36
2022-10-18T05:33:14.772Z,48
2022-10-18T05:34:18.141Z,60
2022-10-18T05:35:21.133Z,68
2022-10-18T05:36:23.998Z,76
2022-10-18T05:37:28.229Z,88
2022-10-18T05:38:32.835Z,104
2022-10-18T05:39:36.131Z,116
2022-10-18T05:40:39.497Z,136
2022-10-18T05:41:42.575Z,148
2022-10-18T05:42:46.201Z,148
2022-10-18T05:43:49.223Z,156
2022-10-18T05:44:52.647Z,172
2022-10-18T05:45:55.539Z,180
2022-10-18T05:46:59.255Z,200
2022-10-18T05:48:01.691Z,216
2022-10-18T05:49:05.508Z,244
2022-10-18T05:50:08.925Z,264
2022-10-18T05:51:12.056Z,292
2022-10-18T05:52:15.055Z,356
2022-10-18T05:53:35.554Z,364
2022-10-18T05:54:41.662Z,416
2022-10-18T05:55:44.722Z,476
2022-10-18T05:56:47.512Z,500
2022-10-18T05:57:50.500Z,524
2022-10-18T05:58:53.636Z,540
2022-10-18T05:59:56.432Z,540
2022-10-18T06:01:00.166Z,532
2022-10-18T06:02:03.497Z,568
2022-10-18T06:03:06.441Z,556
2022-10-18T06:04:10.195Z,576
2022-10-18T06:05:13.538Z,556
2022-10-18T06:06:16.227Z,568
2022-10-18T06:07:19.271Z,576
2022-10-18T06:08:21.699Z,576
2022-10-18T06:09:24.964Z,552
2022-10-18T06:10:29.165Z,536
2022-10-18T06:11:31.679Z,504
2022-10-18T06:12:34.776Z,532
2022-10-18T06:13:37.920Z,564
2022-10-18T06:14:40.699Z,548
2022-10-18T06:15:43.944Z,600
2022-10-18T06:16:46.655Z,600
2022-10-18T06:17:49.825Z,588
2022-10-18T06:18:53.550Z,656
2022-10-18T06:19:56.333Z,732
2022-10-18T06:20:59.434Z,732
2022-10-18T06:22:02.319Z,696
2022-10-18T06:23:05.266Z,668
2022-10-18T06:24:08.603Z,700
2022-10-18T06:25:11.196Z,712
2022-10-18T06:26:15.307Z,796
2022-10-18T06:27:18.450Z,752
2022-10-18T06:28:21.323Z,768
2022-10-18T06:29:24.784Z,772
2022-10-18T06:30:28.005Z,896
2022-10-18T06:31:30.534Z,1000
2022-10-18T06:32:33.394Z,904
2022-10-18T06:33:36.202Z,924
2022-10-18T06:34:39.264Z,992
2022-10-18T06:35:41.790Z,1016
2022-10-18T06:36:45.131Z,1052
2022-10-18T06:37:48.280Z,1176
2022-10-18T06:38:51.455Z,1236
2022-10-18T06:39:54.598Z,1132
2022-10-18T06:40:57.750Z,1096
2022-10-18T06:42:01.620Z,1168
2022-10-18T06:43:16.428Z,1236
2022-10-18T06:44:24.492Z,1448
2022-10-18T06:45:27.666Z,1332
2022-10-18T06:46:30.461Z,1360
2022-10-18T06:47:33.243Z,1500
2022-10-18T06:48:36.232Z,1676
2022-10-18T06:49:39.700Z,1872
2022-10-18T06:50:42.986Z,2020
2022-10-18T06:51:46.598Z,2048
2022-10-18T06:52:48.888Z,2208
2022-10-18T06:54:06.024Z,2112
2022-10-18T06:55:21.649Z,2184
2022-10-18T06:56:24.811Z,2348
2022-10-18T06:57:29.011Z,2388
2022-10-18T06:58:32.096Z,2400
2022-10-18T06:59:35.464Z,2548
2022-10-18T07:00:38.524Z,2560
2022-10-18T07:01:41.968Z,2624
2022-10-18T07:02:45.315Z,2728
2022-10-18T07:03:48.373Z,2728
2022-10-18T07:04:51.249Z,2784
2022-10-18T07:05:53.396Z,2652
2022-10-18T07:06:56.481Z,2564
2022-10-18T07:07:59.829Z,2628
2022-10-18T07:09:02.986Z,2828
2022-10-18T07:10:05.976Z,2928
2022-10-18T07:11:12.059Z,2964
2022-10-18T07:12:15.505Z,2992
2022-10-18T07:13:31.874Z,3072
2022-10-18T07:14:36.106Z,3168
2022-10-18T07:15:39.562Z,2988
2022-10-18T07:16:42.305Z,2960
2022-10-18T07:17:44.698Z,2964
2022-10-18T07:18:47.916Z,2924
2022-10-18T07:19:50.984Z,2884
2022-10-18T07:20:54.354Z,2892
2022-10-18T07:21:57.806Z,3036
2022-10-18T07:23:00.607Z,3000
2022-10-18T07:24:03.874Z,3012
2022-10-18T07:25:07.663Z,3096
2022-10-18T07:26:10.772Z,3012
2022-10-18T07:27:13.944Z,3192
2022-10-18T07:28:17.016Z,3124
2022-10-18T07:29:21.161Z,3016
2022-10-18T07:30:24.041Z,3000
2022-10-18T07:31:26.845Z,2764
2022-10-18T07:32:30.050Z,2940
2022-10-18T07:33:33.139Z,2908
2022-10-18T07:34:36.485Z,2920
2022-10-18T07:35:39.271Z,2968
2022-10-18T07:36:42.442Z,3032
2022-10-18T07:37:45.299Z,3240
2022-10-18T07:38:48.469Z,3204
2022-10-18T07:39:51.619Z,3168
2022-10-18T07:40:54.798Z,3424
2022-10-18T07:41:57.935Z,3152
2022-10-18T07:43:04.124Z,3228
2022-10-18T07:44:14.581Z,3088
2022-10-18T07:45:18.506Z,3156
2022-10-18T07:46:21.282Z,2648
2022-10-18T07:47:24.268Z,2844
2022-10-18T07:48:29.325Z,2896
2022-10-18T07:49:32.457Z,2976
2022-10-18T07:50:35.259Z,2920
2022-10-18T07:51:38.881Z,3300
2022-10-18T07:52:42.300Z,3064
2022-10-18T07:53:45.010Z,3036
2022-10-18T07:54:47.629Z,2856
2022-10-18T07:55:51.233Z,2888
2022-10-18T07:56:54.960Z,3076
2022-10-18T07:57:57.854Z,3604
2022-10-18T07:59:00.734Z,3096
2022-10-18T08:00:03.419Z,3556
2022-10-18T08:01:07.668Z,3324
2022-10-18T08:02:10.940Z,3632
2022-10-18T08:03:13.642Z,3184
2022-10-18T08:04:17.070Z,3820
2022-10-18T08:05:19.732Z,4496
2022-10-18T08:06:23.220Z,3896
2022-10-18T08:07:26.636Z,4108
2022-10-18T08:08:30.340Z,3856
2022-10-18T08:09:33.522Z,3832
2022-10-18T08:10:36.590Z,3648
2022-10-18T08:11:40.209Z,3436
2022-10-18T08:12:42.916Z,3340
2022-10-18T08:13:46.239Z,3284
2022-10-18T08:14:49.404Z,3664
2022-10-18T08:15:52.745Z,3688
2022-10-18T08:16:56.957Z,3312
2022-10-18T08:17:59.928Z,3388
2022-10-18T08:19:03.656Z,3784
2022-10-18T08:20:12.541Z,3644
2022-10-18T08:21:34.409Z,3504
2022-10-18T08:22:37.778Z,3272
2022-10-18T08:23:41.047Z,4668
2022-10-18T08:24:44.572Z,4476
2022-10-18T08:25:47.469Z,3584
2022-10-18T08:26:51.469Z,3956
2022-10-18T08:27:54.636Z,4120
2022-10-18T08:29:10.595Z,3656
2022-10-18T08:30:34.323Z,3620
2022-10-18T08:31:37.734Z,3552
2022-10-18T08:32:41.953Z,3568
2022-10-18T08:33:44.752Z,4148
2022-10-18T08:34:47.835Z,3908
2022-10-18T08:35:51.656Z,3680
2022-10-18T08:36:54.823Z,4060
2022-10-18T08:37:58.313Z,4148
2022-10-18T08:39:02.299Z,3904
2022-10-18T08:40:06.089Z,4384
2022-10-18T08:41:09.065Z,4168
2022-10-18T08:42:12.116Z,4876
2022-10-18T08:43:19.415Z,4392
2022-10-18T08:44:24.599Z,5036
2022-10-18T08:45:41.739Z,5412
2022-10-18T08:46:46.002Z,4944
2022-10-18T08:47:50.196Z,4560
2022-10-18T08:48:52.795Z,6116
2022-10-18T08:49:56.242Z,6404
2022-10-18T08:50:59.936Z,5508
2022-10-18T08:52:03.084Z,5760
2022-10-18T08:53:05.515Z,5776
2022-10-18T08:54:08.582Z,6204
2022-10-18T08:55:11.726Z,6024
2022-10-18T08:56:14.650Z,6112
2022-10-18T08:57:17.761Z,5092
2022-10-18T08:58:20.921Z,5404
2022-10-18T08:59:25.372Z,4528
2022-10-18T09:00:29.016Z,6056
2022-10-18T09:01:32.181Z,5188
2022-10-18T09:02:36.158Z,5116
2022-10-18T09:03:40.335Z,5132
2022-10-18T09:04:43.944Z,5596
2022-10-18T09:05:46.730Z,6356
2022-10-18T09:06:50.195Z,6776
2022-10-18T09:07:53.267Z,5996
2022-10-18T09:08:56.992Z,7940
2022-10-18T09:10:00.132Z,8204
2022-10-18T09:11:03.593Z,8704
2022-10-18T09:12:06.384Z,10556
2022-10-18T09:13:09.193Z,11136
2022-10-18T09:14:12.243Z,11516
2022-10-18T09:15:15.611Z,12208
2022-10-18T09:16:18.599Z,10992
2022-10-18T09:17:21.766Z,10912
2022-10-18T09:18:24.637Z,10552
2022-10-18T09:19:28.794Z,10336
2022-10-18T09:20:32.145Z,10760
2022-10-18T09:21:35.219Z,10372
2022-10-18T09:22:38.144Z,9856
2022-10-18T09:23:41.287Z,9468
2022-10-18T09:24:44.084Z,8784
2022-10-18T09:25:46.602Z,8412
2022-10-18T09:26:49.483Z,8300
2022-10-18T09:27:52.645Z,8624
2022-10-18T09:28:56.164Z,8844
2022-10-18T09:29:59.467Z,8756
2022-10-18T09:31:03.173Z,8616
2022-10-18T09:32:06.692Z,8168
2022-10-18T09:33:10.031Z,8228
2022-10-18T09:34:13.749Z,8652
2022-10-18T09:35:17.955Z,9304
2022-10-18T09:36:21.322Z,9140
2022-10-18T09:37:24.203Z,9260
2022-10-18T09:38:27.547Z,9764
2022-10-18T09:39:31.594Z,10040
2022-10-18T09:40:34.185Z,10044
2022-10-18T09:41:37.328Z,10236
2022-10-18T09:42:40.974Z,10644
2022-10-18T09:43:44.489Z,10988
2022-10-18T09:44:47.001Z,11216
2022-10-18T09:45:49.870Z,11132
2022-10-18T09:46:52.994Z,11204
2022-10-18T09:47:56.063Z,11348
2022-10-18T09:48:58.853Z,11588
2022-10-18T09:50:02.195Z,11852
2022-10-18T09:51:06.491Z,12272
2022-10-18T09:52:09.279Z,12724
2022-10-18T09:53:13.286Z,13092
2022-10-18T09:54:16.358Z,13384
2022-10-18T09:55:19.816Z,13560
2022-10-18T09:56:23.197Z,13440
2022-10-18T09:57:25.915Z,13168
2022-10-18T09:58:28.440Z,12900
2022-10-18T09:59:31.875Z,12604
2022-10-18T10:00:35.496Z,12380
2022-10-18T10:01:38.873Z,12000
2022-10-18T10:02:41.736Z,11840
2022-10-18T10:03:44.870Z,11960
2022-10-18T10:04:48.573Z,11928
2022-10-18T10:05:51.476Z,12048
2022-10-18T10:06:55.702Z,12180
2022-10-18T10:07:58.491Z,12408
2022-10-18T10:09:01.941Z,12444
2022-10-18T10:10:05.101Z,12880
2022-10-18T10:11:08.973Z,13016
2022-10-18T10:12:12.483Z,13112
2022-10-18T10:13:14.993Z,13140
2022-10-18T10:14:18.065Z,13296
2022-10-18T10:15:21.586Z,13448
2022-10-18T10:16:24.607Z,13616
2022-10-18T10:17:27.763Z,14292
2022-10-18T10:18:32.348Z,14404
2022-10-18T10:19:35.998Z,14664
2022-10-18T10:20:38.723Z,14644
2022-10-18T10:21:42.233Z,14304
2022-10-18T10:22:46.445Z,14076
2022-10-18T10:23:50.059Z,14284
2022-10-18T10:24:53.156Z,14292
2022-10-18T10:25:56.888Z,13664
2022-10-18T10:26:59.978Z,13484
2022-10-18T10:28:03.112Z,13576
2022-10-18T10:29:09.950Z,13280
2022-10-18T10:30:47.870Z,13040
2022-10-18T10:31:51.317Z,12832
2022-10-18T10:32:54.111Z,12652
2022-10-18T10:33:57.347Z,12444
2022-10-18T10:35:00.445Z,12480
2022-10-18T10:36:03.602Z,12540
2022-10-18T10:37:07.617Z,12816
2022-10-18T10:38:11.759Z,12892
2022-10-18T10:39:14.537Z,12956
2022-10-18T10:40:18.686Z,12972
2022-10-18T10:41:33.708Z,13432
2022-10-18T10:42:37.027Z,14888
2022-10-18T10:43:41.029Z,14296
2022-10-18T10:44:44.193Z,14184
2022-10-18T10:45:47.556Z,14704
2022-10-18T10:46:50.382Z,15480
2022-10-18T10:47:52.835Z,16424
2022-10-18T10:49:14.154Z,17024
2022-10-18T10:50:43.728Z,18816
2022-10-18T10:51:50.648Z,28448
2022-10-18T10:53:31.298Z,52448
2022-10-18T10:54:35.059Z,70368
2022-10-18T10:57:56.790Z,95072
2022-10-18T10:59:00.199Z,57536
2022-10-18T11:00:04.003Z,56480
2022-10-18T11:01:09.084Z,110656
2022-10-18T11:02:14.309Z,111648
2022-10-18T11:03:28.321Z,115584
2022-10-18T11:04:33.413Z,113216
2022-10-18T11:05:37.116Z,103968
2022-10-18T11:06:40.538Z,113696
2022-10-18T11:07:44.249Z,113952
2022-10-18T11:08:48.465Z,113344
2022-10-18T11:09:51.370Z,111040
2022-10-18T11:10:55.076Z,105728
2022-10-18T11:11:57.870Z,105760
2022-10-18T11:13:01.222Z,105856
2022-10-18T11:15:36.800Z,106464
2022-10-18T11:16:39.874Z,108608
2022-10-18T11:17:43.327Z,117056
2022-10-18T11:18:46.053Z,122688
2022-10-18T11:19:49.553Z,126080
2022-10-18T11:20:52.648Z,125120
2022-10-18T11:21:56.369Z,22016
2022-10-18T11:22:59.496Z,119520
2022-10-18T11:24:03.630Z,115488
2022-10-18T11:25:06.600Z,115296
2022-10-18T11:26:09.663Z,108352
2022-10-18T11:27:12.755Z,104736
2022-10-18T11:28:16.178Z,100480
2022-10-18T11:29:19.481Z,99904
2022-10-18T11:30:22.347Z,103616
2022-10-18T11:31:25.419Z,95008
2022-10-18T11:32:29.012Z,101152
2022-10-18T11:33:50.294Z,102784
2022-10-18T11:35:12.949Z,116672
2022-10-18T11:36:16.473Z,67136
2022-10-18T11:37:29.351Z,118784
2022-10-18T11:38:44.645Z,105824
2022-10-18T11:39:48.645Z,85824
2022-10-18T11:40:51.759Z,25152
2022-10-18T11:41:54.553Z,26752
2022-10-18T11:42:57.063Z,28576
2022-10-18T11:44:03.614Z,27456
2022-10-18T11:45:06.623Z,21056
2022-10-18T11:46:10.037Z,18560
2022-10-18T11:47:13.502Z,17324
2022-10-18T11:48:15.825Z,15272
2022-10-18T11:49:19.175Z,15124
2022-10-18T11:50:22.277Z,14148
2022-10-18T11:51:29.737Z,103520
2022-10-18T11:53:11.868Z,52640
2022-10-18T11:54:14.739Z,20896
2022-10-18T11:55:18.604Z,30944
2022-10-18T11:56:21.836Z,21376
2022-10-18T11:57:24.694Z,17376
2022-10-18T11:58:27.966Z,17088
2022-10-18T11:59:30.881Z,15696
2022-10-18T12:00:33.322Z,14364
2022-10-18T12:01:37.080Z,19744
2022-10-18T12:02:39.893Z,15640
2022-10-18T12:03:43.199Z,19072
2022-10-18T12:04:58.326Z,13748
2022-10-18T12:06:38.905Z,102400
2022-10-18T12:07:42.047Z,19680
2022-10-18T12:08:45.475Z,20640
2022-10-18T12:11:04.379Z,11796
2022-10-18T12:12:09.904Z,10792
2022-10-18T12:13:12.702Z,9644
2022-10-18T12:14:16.439Z,8908
2022-10-18T12:15:19.611Z,95968
2022-10-18T12:16:33.771Z,12432
2022-10-18T12:19:54.744Z,101984
2022-10-18T12:20:58.359Z,18500
2022-10-18T12:22:01.682Z,11212
2022-10-18T12:23:05.135Z,100960
2022-10-18T12:24:08.165Z,14212
2022-10-18T12:25:11.874Z,13424
2022-10-18T12:26:15.719Z,85152
2022-10-18T12:27:19.284Z,88256
2022-10-18T12:28:22.433Z,63488
2022-10-18T12:29:25.350Z,22880
2022-10-18T12:30:27.947Z,25856
2022-10-18T12:31:30.733Z,42528
2022-10-18T12:32:34.492Z,42080
2022-10-18T12:33:38.213Z,61152
2022-10-18T12:34:40.813Z,55616
2022-10-18T12:35:43.614Z,16708
2022-10-18T12:36:46.969Z,56320
2022-10-18T12:37:50.046Z,30208
2022-10-18T12:38:52.764Z,12696
2022-10-18T12:40:14.477Z,24672
2022-10-18T12:41:24.765Z,64064
2022-10-18T12:42:28.163Z,17080
2022-10-18T12:43:31.335Z,11384
2022-10-18T12:44:34.193Z,9536
2022-10-18T12:45:37.926Z,13260
2022-10-18T12:46:41.453Z,29664
2022-10-18T12:47:44.159Z,16896
2022-10-18T12:48:47.620Z,8276
2022-10-18T12:49:51.247Z,13612
2022-10-18T12:50:54.325Z,8824
2022-10-18T12:51:58.101Z,20128
2022-10-18T12:53:00.254Z,6520
2022-10-18T12:54:03.064Z,29280
2022-10-18T12:55:06.567Z,14712
2022-10-18T12:56:10.009Z,15200
2022-10-18T12:57:13.920Z,12916
2022-10-18T12:58:17.111Z,7904
2022-10-18T12:59:19.903Z,8432
2022-10-18T13:00:22.762Z,16616
2022-10-18T13:01:25.877Z,7604
2022-10-18T13:02:30.039Z,8532
2022-10-18T13:03:35.607Z,7540
2022-10-18T13:04:38.346Z,28512
2022-10-18T13:05:48.704Z,26144
2022-10-18T13:07:00.039Z,13904
2022-10-18T13:08:03.315Z,12756
2022-10-18T13:09:06.020Z,20096
2022-10-18T13:10:09.332Z,42496
2022-10-18T13:11:12.311Z,54304
2022-10-18T13:12:16.180Z,41248
2022-10-18T13:13:38.530Z,11692
2022-10-18T13:14:48.173Z,24224
2022-10-18T13:16:36.070Z,19136
2022-10-18T13:17:39.717Z,15056
2022-10-18T13:18:42.157Z,15896
2022-10-18T13:19:44.873Z,11340
2022-10-18T13:21:29.076Z,21920
2022-10-18T13:22:32.069Z,12568
2022-10-18T13:23:37.741Z,13364
2022-10-18T13:24:41.813Z,17136
2022-10-18T13:25:45.210Z,17664
2022-10-18T13:26:51.124Z,21344
2022-10-18T13:28:39.257Z,16612
2022-10-18T13:29:43.479Z,13412
2022-10-18T13:30:47.242Z,28512
2022-10-18T13:31:50.390Z,13428
2022-10-18T13:32:53.738Z,16928
2022-10-18T13:33:59.623Z,12360
2022-10-18T13:35:02.869Z,12968
2022-10-18T13:36:06.299Z,22592
2022-10-18T13:37:09.285Z,13296
2022-10-18T13:38:12.088Z,13412
2022-10-18T13:39:15.270Z,7848
2022-10-18T13:40:18.263Z,10968
2022-10-18T13:41:21.370Z,18496
2022-10-18T13:42:25.019Z,11628
2022-10-18T13:43:28.361Z,9136
2022-10-18T13:44:32.465Z,14032
2022-10-18T13:45:35.278Z,14588
2022-10-18T13:46:38.392Z,8664
2022-10-18T13:47:42.101Z,19200
2022-10-18T13:48:47.639Z,7804
2022-10-18T13:49:50.721Z,8548
2022-10-18T13:51:01.447Z,8172
2022-10-18T13:52:04.319Z,8820
2022-10-18T13:53:07.755Z,11552
2022-10-18T13:54:11.194Z,8000
2022-10-18T13:55:13.639Z,6256
2022-10-18T13:56:17.438Z,6028
2022-10-18T13:57:20.875Z,7952
2022-10-18T13:58:23.690Z,6816
2022-10-18T13:59:26.913Z,7716
2022-10-18T14:00:31.362Z,7700
2022-10-18T14:01:35.035Z,6536
2022-10-18T14:02:57.682Z,6320
2022-10-18T14:04:05.668Z,6240
2022-10-18T14:05:23.337Z,5824
2022-10-18T14:06:28.512Z,6684
2022-10-18T14:07:31.313Z,6580
2022-10-18T14:09:44.296Z,6264
2022-10-18T14:11:05.263Z,5164
2022-10-18T14:12:08.901Z,6264
2022-10-18T14:13:11.953Z,5944
2022-10-18T14:14:15.223Z,6776
2022-10-18T14:15:19.238Z,5952
2022-10-18T14:16:23.135Z,5348
2022-10-18T14:17:26.799Z,4824
2022-10-18T14:18:31.445Z,4812
2022-10-18T14:19:35.635Z,4748
2022-10-18T14:20:49.289Z,4800
2022-10-18T14:22:32.664Z,4872
2022-10-18T14:23:37.808Z,4832
2022-10-18T14:24:40.798Z,4756
2022-10-18T14:25:44.500Z,4696
2022-10-18T14:26:47.647Z,4660
2022-10-18T14:27:52.230Z,4624
2022-10-18T14:28:59.809Z,4580
2022-10-18T14:30:04.006Z,4556
2022-10-18T14:31:07.156Z,4500
2022-10-18T14:32:10.987Z,4460
2022-10-18T14:33:14.076Z,4444
2022-10-18T14:34:17.227Z,4464
2022-10-18T14:35:31.899Z,4448
2022-10-18T14:36:36.551Z,4380
2022-10-18T14:37:39.499Z,4252
2022-10-18T14:38:42.653Z,4064
2022-10-18T14:39:45.365Z,3992
2022-10-18T14:40:48.783Z,4148
2022-10-18T14:41:51.931Z,4232
2022-10-18T14:42:55.420Z,4252
2022-10-18T14:43:58.586Z,4236
2022-10-18T14:45:01.749Z,4220
2022-10-18T14:46:04.924Z,4140
2022-10-18T14:47:08.067Z,4144
2022-10-18T14:48:11.725Z,4224
2022-10-18T14:49:15.173Z,4156
2022-10-18T14:50:18.426Z,4176
2022-10-18T14:51:22.153Z,4196
2022-10-18T14:52:26.375Z,4288
2022-10-18T14:53:38.305Z,4192